Time;durP1;ratioP1;P1;durP2;ratioP2;P2;SDS_P1;SDS_P2;PMS_P1;PMS_P2;Temp;Humidity;BMP_temperature;BMP_pressure;BME280_temperature;BME280_humidity;BME280_pressure;Samples;Min_cycle;Max_cycle;Signal;HPM_P1;HPM_P2
2021/10/11 00:02:15;;;;;;;14.93;13.40;;;7.80;99.90;;;;;;5056393;28;20285;-61
2021/10/11 00:04:41;;;;;;;13.60;12.20;;;7.80;99.90;;;;;;5056143;28;20185;-62
2021/10/11 00:07:08;;;;;;;16.60;14.90;;;7.80;99.90;;;;;;5056400;28;20608;-62
2021/10/11 00:09:34;;;;;;;18.40;14.80;;;7.70;99.90;;;;;;5056218;28;20441;-62
2021/10/11 00:12:00;;;;;;;18.80;15.00;;;7.70;99.90;;;;;;5056466;28;20404;-60
2021/10/11 00:14:26;;;;;;;17.20;15.30;;;7.70;99.90;;;;;;5056323;28;20398;-62
2021/10/11 00:16:52;;;;;;;17.20;14.93;;;7.70;99.90;;;;;;5056231;28;20269;-62
2021/10/11 00:19:17;;;;;;;18.10;15.20;;;7.70;99.90;;;;;;5055604;28;20178;-61
2021/10/11 00:21:43;;;;;;;17.43;15.50;;;7.80;99.90;;;;;;5056131;28;20206;-62
2021/10/11 00:24:09;;;;;;;16.93;15.23;;;7.80;99.90;;;;;;5056595;28;20170;-62
2021/10/11 00:26:34;;;;;;;18.57;16.30;;;7.80;99.90;;;;;;5056062;28;20194;-62
2021/10/11 00:29:00;;;;;;;16.83;14.67;;;7.80;99.90;;;;;;5055784;28;20269;-61
2021/10/11 00:31:26;;;;;;;14.70;13.30;;;7.80;99.90;;;;;;5056093;28;20652;-62
2021/10/11 00:33:51;;;;;;;17.40;14.00;;;7.80;99.90;;;;;;5051998;28;20244;-61
2021/10/11 00:36:17;;;;;;;17.57;14.87;;;7.70;99.90;;;;;;5055681;28;20336;-61
2021/10/11 00:38:42;;;;;;;17.90;15.10;;;7.70;99.90;;;;;;5037806;28;20666;-61
2021/10/11 00:41:08;;;;;;;15.70;13.80;;;7.80;99.90;;;;;;5055681;28;20162;-62
2021/10/11 00:43:33;;;;;;;16.83;13.70;;;7.70;99.90;;;;;;5055567;28;20181;-62
2021/10/11 00:45:59;;;;;;;16.40;14.57;;;7.70;99.90;;;;;;5055479;28;20209;-62
2021/10/11 00:48:25;;;;;;;18.20;13.60;;;7.60;99.90;;;;;;5055274;28;20602;-61
2021/10/11 00:50:51;;;;;;;17.63;14.10;;;7.60;99.90;;;;;;5055547;28;20168;-61
2021/10/11 00:53:18;;;;;;;17.00;15.17;;;7.60;99.90;;;;;;5055446;28;20159;-61
2021/10/11 00:55:44;;;;;;;14.50;12.57;;;7.50;99.90;;;;;;5055052;28;20424;-61
2021/10/11 00:58:10;;;;;;;16.73;12.90;;;7.50;99.90;;;;;;5055336;28;20765;-59
2021/10/11 01:00:36;;;;;;;13.63;12.23;;;7.60;99.90;;;;;;5054584;28;20208;-61
2021/10/11 01:03:01;;;;;;;18.23;12.70;;;7.70;99.90;;;;;;5054100;28;20169;-61
2021/10/11 01:05:27;;;;;;;16.23;12.23;;;7.70;99.90;;;;;;5055279;28;20202;-60
2021/10/11 01:07:52;;;;;;;15.87;13.73;;;7.60;99.90;;;;;;5037422;28;20174;-61
2021/10/11 01:10:18;;;;;;;16.20;14.40;;;7.50;99.90;;;;;;5055023;28;20637;-61
2021/10/11 01:12:44;;;;;;;16.17;12.83;;;7.50;99.90;;;;;;5055086;28;20194;-61
2021/10/11 01:15:09;;;;;;;15.70;12.97;;;7.50;99.90;;;;;;5055256;28;20171;-61
2021/10/11 01:17:35;;;;;;;14.33;12.43;;;7.50;99.90;;;;;;5054764;28;20250;-61
2021/10/11 01:20:01;;;;;;;16.50;13.73;;;7.50;99.90;;;;;;5053520;28;20182;-61
2021/10/11 01:22:39;;;;;;;15.83;12.43;;;7.50;99.90;;;;;;5054913;28;20163;-61
2021/10/11 01:25:08;;;;;;;15.43;13.20;;;7.50;99.90;;;;;;5053902;28;20191;-62
2021/10/11 01:27:34;;;;;;;14.60;13.03;;;7.50;99.90;;;;;;5054789;28;20749;-61
2021/10/11 01:30:00;;;;;;;14.63;13.13;;;7.50;99.90;;;;;;5055148;28;20452;-61
2021/10/11 01:32:26;;;;;;;14.60;13.10;;;7.60;99.90;;;;;;5054740;28;20833;-61
2021/10/11 01:34:52;;;;;;;15.37;13.17;;;7.50;99.90;;;;;;5054253;28;20512;-61
2021/10/11 01:37:18;;;;;;;16.93;14.90;;;7.50;99.90;;;;;;5054457;28;20205;-61
2021/10/11 01:39:44;;;;;;;19.93;14.00;;;7.50;99.90;;;;;;5054707;28;20888;-61
2021/10/11 01:42:09;;;;;;;16.73;13.07;;;7.50;99.90;;;;;;5054630;28;20444;-61
2021/10/11 01:44:35;;;;;;;15.47;13.90;;;7.40;99.90;;;;;;5054507;28;20174;-61
2021/10/11 01:47:02;;;;;;;15.70;14.00;;;7.30;99.90;;;;;;5054327;28;20206;-61
2021/10/11 01:49:27;;;;;;;16.83;14.63;;;7.20;99.90;;;;;;5053855;28;20453;-60
2021/10/11 01:51:53;;;;;;;17.47;14.37;;;7.20;99.90;;;;;;5054238;28;20922;-61
2021/10/11 01:54:19;;;;;;;19.63;14.43;;;7.30;99.90;;;;;;5054828;28;20212;-59
2021/10/11 01:56:44;;;;;;;15.17;13.53;;;7.30;99.90;;;;;;5054303;28;20190;-60
2021/10/11 01:59:10;;;;;;;15.70;13.43;;;7.30;99.90;;;;;;5054269;28;20163;-60
2021/10/11 02:01:35;;;;;;;15.60;13.90;;;7.30;99.90;;;;;;5054528;28;20172;-60
2021/10/11 02:04:01;;;;;;;16.47;14.20;;;7.20;99.90;;;;;;5054197;28;20198;-60
2021/10/11 02:06:26;;;;;;;17.10;14.13;;;7.30;99.90;;;;;;5053513;28;20751;-62
2021/10/11 02:08:52;;;;;;;17.17;15.37;;;7.20;99.90;;;;;;5053434;28;20191;-62
2021/10/11 02:11:18;;;;;;;16.80;12.80;;;7.20;99.90;;;;;;5054080;28;20511;-62
2021/10/11 02:13:43;;;;;;;18.73;14.20;;;7.20;99.90;;;;;;5053968;28;20178;-62
2021/10/11 02:16:09;;;;;;;15.50;13.80;;;7.20;99.90;;;;;;5053783;28;20605;-63
2021/10/11 02:18:34;;;;;;;15.60;13.90;;;7.30;99.90;;;;;;5054153;28;20182;-62
2021/10/11 02:21:00;;;;;;;15.87;13.63;;;7.20;99.90;;;;;;5053267;28;20182;-62
2021/10/11 02:23:26;;;;;;;15.63;14.03;;;7.10;99.90;;;;;;5053790;28;20197;-62
2021/10/11 02:25:52;;;;;;;17.13;13.90;;;7.20;99.90;;;;;;5054191;28;20178;-62
2021/10/11 02:28:18;;;;;;;17.93;16.03;;;7.20;99.90;;;;;;5053508;28;20413;-62
2021/10/11 02:30:44;;;;;;;18.50;15.60;;;7.10;99.90;;;;;;5043138;28;20780;-61
2021/10/11 02:33:10;;;;;;;17.87;15.20;;;7.20;99.90;;;;;;5034025;28;20167;-63
2021/10/11 02:35:35;;;;;;;16.30;14.60;;;7.20;99.90;;;;;;5033417;28;20779;-62
2021/10/11 02:38:01;;;;;;;16.73;14.90;;;7.20;99.90;;;;;;5034247;28;20175;-62
2021/10/11 02:40:26;;;;;;;18.17;16.10;;;7.20;99.90;;;;;;5033565;28;20233;-62
2021/10/11 02:42:52;;;;;;;18.30;16.50;;;7.10;99.90;;;;;;5033881;28;20183;-62
2021/10/11 02:45:22;;;;;;;19.57;15.13;;;7.00;99.90;;;;;;5033543;28;20258;-58
2021/10/11 02:47:48;;;;;;;15.30;13.70;;;7.00;99.90;;;;;;5096443;23;20319;-60
2021/10/11 02:50:13;;;;;;;16.17;14.40;;;6.90;99.90;;;;;;5093264;28;20526;-61
2021/10/11 02:52:39;;;;;;;18.80;15.43;;;6.90;99.90;;;;;;5093359;28;20165;-61
2021/10/11 02:55:06;;;;;;;18.40;15.03;;;7.00;99.90;;;;;;5093457;28;20530;-61
2021/10/11 02:57:31;;;;;;;16.90;14.47;;;7.00;99.90;;;;;;5076481;28;20749;-61
2021/10/11 02:59:57;;;;;;;16.63;14.97;;;7.00;99.90;;;;;;5073464;28;20405;-61
2021/10/11 03:02:23;;;;;;;19.97;15.20;;;7.00;99.90;;;;;;5072756;28;20227;-60
2021/10/11 03:04:50;;;;;;;17.10;15.13;;;7.00;99.90;;;;;;5073467;28;20592;-59
2021/10/11 03:07:16;;;;;;;18.77;15.80;;;7.10;99.90;;;;;;5073359;28;20194;-60
2021/10/11 03:09:43;;;;;;;19.30;15.33;;;7.00;99.90;;;;;;5073140;28;20592;-61
2021/10/11 03:12:08;;;;;;;19.50;17.37;;;7.00;99.90;;;;;;5072895;28;20396;-61
2021/10/11 03:14:34;;;;;;;17.30;15.43;;;6.90;99.90;;;;;;5073287;28;20901;-61
2021/10/11 03:17:00;;;;;;;15.67;13.60;;;6.90;99.90;;;;;;5078319;28;20558;-61
2021/10/11 03:19:25;;;;;;;16.73;14.20;;;6.90;99.90;;;;;;5094203;28;20165;-60
2021/10/11 03:21:51;;;;;;;17.57;14.47;;;6.80;99.90;;;;;;5098413;28;20169;-61
2021/10/11 03:24:16;;;;;;;18.80;16.30;;;6.80;99.90;;;;;;5080088;28;20634;-61
2021/10/11 03:26:42;;;;;;;18.97;16.93;;;6.80;99.90;;;;;;5097440;28;20239;-60
2021/10/11 03:29:07;;;;;;;14.70;13.20;;;6.80;99.90;;;;;;5097947;28;20238;-61
2021/10/11 03:31:33;;;;;;;17.40;14.83;;;6.90;99.90;;;;;;5096812;28;20244;-60
2021/10/11 03:33:59;;;;;;;18.23;14.87;;;6.90;99.90;;;;;;5097040;28;20583;-61
2021/10/11 03:36:24;;;;;;;17.13;14.90;;;6.90;99.90;;;;;;5097134;28;20196;-61
2021/10/11 03:38:50;;;;;;;20.53;17.33;;;6.90;99.90;;;;;;5097395;28;20167;-60
2021/10/11 03:41:15;;;;;;;20.33;16.07;;;6.90;99.90;;;;;;5096989;28;20165;-62
2021/10/11 03:43:41;;;;;;;18.10;14.87;;;6.90;99.90;;;;;;5096941;28;20166;-57
2021/10/11 03:46:06;;;;;;;15.60;13.33;;;6.90;99.90;;;;;;5096107;28;20683;-60
2021/10/11 03:48:33;;;;;;;21.93;16.07;;;6.90;99.90;;;;;;5096727;28;20204;-61
2021/10/11 03:50:58;;;;;;;16.13;14.20;;;6.90;99.90;;;;;;5096827;28;20168;-59
2021/10/11 03:53:24;;;;;;;19.03;16.30;;;6.90;99.90;;;;;;5096682;28;20492;-60
2021/10/11 03:55:50;;;;;;;21.70;18.57;;;6.90;99.90;;;;;;5096721;28;20178;-60
2021/10/11 03:58:15;;;;;;;18.30;16.17;;;6.80;99.90;;;;;;5096908;28;20172;-59
2021/10/11 04:00:41;;;;;;;20.47;16.80;;;6.70;99.90;;;;;;5096684;28;20163;-61
2021/10/11 04:03:08;;;;;;;19.07;15.30;;;6.60;99.90;;;;;;5096466;28;20165;-61
2021/10/11 04:05:35;;;;;;;17.13;13.90;;;6.60;99.90;;;;;;5096444;28;20173;-55
2021/10/11 04:08:10;;;;;;;17.70;15.13;;;6.60;99.90;;;;;;5096771;28;20453;-60
2021/10/11 04:10:42;;;;;;;20.73;16.40;;;6.70;99.90;;;;;;5096457;28;20422;-57
2021/10/11 04:13:07;;;;;;;22.00;16.90;;;6.80;99.90;;;;;;5096318;28;20402;-57
2021/10/11 04:15:33;;;;;;;21.13;17.60;;;6.70;99.90;;;;;;5096117;28;20391;-57
2021/10/11 04:17:59;;;;;;;18.03;15.93;;;6.70;99.90;;;;;;5096054;28;20169;-58
2021/10/11 04:20:24;;;;;;;18.87;16.97;;;6.70;99.90;;;;;;5096350;28;20226;-61
2021/10/11 04:22:50;;;;;;;18.00;15.30;;;6.70;99.90;;;;;;5096482;28;20177;-58
2021/10/11 04:25:15;;;;;;;16.77;15.13;;;6.70;99.90;;;;;;5096468;28;20218;-61
2021/10/11 04:27:41;;;;;;;20.33;17.47;;;6.70;99.90;;;;;;5096049;28;20197;-61
2021/10/11 04:30:08;;;;;;;17.73;15.93;;;6.60;99.90;;;;;;5079105;28;20185;-56
2021/10/11 04:32:34;;;;;;;18.90;16.07;;;6.60;99.90;;;;;;5074310;28;20166;-58
2021/10/11 04:35:00;;;;;;;16.47;14.27;;;6.60;99.90;;;;;;5075781;28;20762;-60
2021/10/11 04:37:25;;;;;;;19.47;17.10;;;6.70;99.90;;;;;;5075687;28;20192;-59
2021/10/11 04:39:51;;;;;;;16.53;14.80;;;6.70;99.90;;;;;;5075649;28;20586;-57
2021/10/11 04:42:17;;;;;;;18.80;16.60;;;6.70;99.90;;;;;;5075504;28;20412;-61
2021/10/11 04:44:42;;;;;;;19.17;16.60;;;6.70;99.90;;;;;;5075750;28;20174;-59
2021/10/11 04:47:08;;;;;;;17.83;15.93;;;6.70;99.90;;;;;;5081520;28;20540;-60
2021/10/11 04:49:34;;;;;;;21.77;19.43;;;6.70;99.90;;;;;;5095528;28;20197;-59
2021/10/11 04:51:59;;;;;;;23.87;20.20;;;6.60;99.90;;;;;;5095548;28;20205;-58
2021/10/11 04:54:25;;;;;;;20.00;17.70;;;6.60;99.90;;;;;;5095952;28;20584;-57
2021/10/11 04:56:50;;;;;;;25.10;20.00;;;6.50;99.90;;;;;;5095556;28;20233;-60
2021/10/11 04:59:16;;;;;;;24.37;20.63;;;6.50;99.90;;;;;;5095645;28;20649;-60
2021/10/11 05:01:41;;;;;;;21.07;18.50;;;6.50;99.90;;;;;;5095422;28;20262;-59
2021/10/11 05:04:08;;;;;;;20.17;17.97;;;6.50;99.90;;;;;;5094394;28;20176;-59
2021/10/11 05:06:33;;;;;;;19.90;17.80;;;6.50;99.90;;;;;;5095214;28;20208;-60
2021/10/11 05:09:00;;;;;;;23.17;19.80;;;6.40;99.90;;;;;;5095729;28;20442;-56
2021/10/11 05:11:29;;;;;;;21.47;19.17;;;6.50;99.90;;;;;;5077385;28;20581;-61
2021/10/11 05:13:55;;;;;;;21.10;17.77;;;6.60;99.90;;;;;;5095430;28;20465;-60
2021/10/11 05:16:21;;;;;;;20.23;18.10;;;6.60;99.90;;;;;;5094538;28;20787;-62
2021/10/11 05:18:47;;;;;;;22.17;17.50;;;6.60;99.90;;;;;;5095466;28;20460;-61
2021/10/11 05:21:13;;;;;;;20.57;18.33;;;6.60;99.90;;;;;;5095349;28;20403;-61
2021/10/11 05:23:38;;;;;;;22.53;17.20;;;6.60;99.90;;;;;;5095381;28;20184;-61
2021/10/11 05:26:04;;;;;;;21.83;18.40;;;6.60;99.90;;;;;;5094682;28;20629;-60
2021/10/11 05:28:30;;;;;;;23.07;18.60;;;6.60;99.90;;;;;;5095101;28;20201;-61
2021/10/11 05:30:55;;;;;;;22.83;20.43;;;6.70;99.90;;;;;;5094703;28;20214;-59
2021/10/11 05:33:22;;;;;;;22.00;19.30;;;6.70;99.90;;;;;;5094352;28;20702;-61
2021/10/11 05:35:49;;;;;;;25.93;22.00;;;6.60;99.90;;;;;;5094878;28;20331;-59
2021/10/11 05:38:15;;;;;;;22.67;19.47;;;6.70;99.90;;;;;;5094104;28;20490;-63
2021/10/11 05:40:41;;;;;;;22.30;20.00;;;6.60;99.90;;;;;;5082490;28;20488;-60
2021/10/11 05:43:07;;;;;;;25.03;21.83;;;6.60;99.90;;;;;;5094963;28;20188;-61
2021/10/11 05:45:33;;;;;;;24.33;21.60;;;6.50;99.90;;;;;;5094750;28;20178;-60
2021/10/11 05:47:59;;;;;;;30.00;23.00;;;6.50;99.90;;;;;;5094541;28;20418;-60
2021/10/11 05:50:24;;;;;;;22.77;19.30;;;6.50;99.90;;;;;;5094401;28;20805;-61
2021/10/11 05:52:50;;;;;;;24.67;20.50;;;6.40;99.90;;;;;;5094420;28;20191;-62
2021/10/11 05:55:15;;;;;;;24.03;20.40;;;6.40;99.90;;;;;;5094305;28;20178;-62
2021/10/11 05:57:41;;;;;;;22.27;19.13;;;6.40;99.90;;;;;;5093309;28;20613;-63
2021/10/11 06:00:08;;;;;;;22.93;20.40;;;6.50;99.90;;;;;;5094426;28;20259;-60
2021/10/11 06:02:33;;;;;;;23.37;18.93;;;6.60;99.90;;;;;;5093982;28;20514;-61
2021/10/11 06:05:01;;;;;;;20.43;18.33;;;6.60;99.90;;;;;;5094105;28;20431;-61
2021/10/11 06:07:26;;;;;;;25.90;21.50;;;6.70;99.90;;;;;;5093698;28;20192;-61
2021/10/11 06:09:52;;;;;;;21.20;18.70;;;6.80;99.90;;;;;;5093803;28;20800;-61
2021/10/11 06:12:18;;;;;;;23.53;19.83;;;6.80;99.90;;;;;;5094283;28;20168;-62
2021/10/11 06:14:43;;;;;;;24.37;19.47;;;6.80;99.90;;;;;;5093722;28;20180;-61
2021/10/11 06:17:09;;;;;;;19.80;17.70;;;6.90;99.90;;;;;;5093371;28;20201;-62
2021/10/11 06:19:34;;;;;;;21.13;18.40;;;7.00;99.90;;;;;;5091379;28;20678;-63
2021/10/11 06:22:00;;;;;;;27.50;19.87;;;7.00;99.90;;;;;;5073308;28;20262;-62
2021/10/11 06:24:26;;;;;;;23.27;18.77;;;6.90;99.90;;;;;;5073763;28;20653;-62
2021/10/11 06:26:52;;;;;;;20.60;17.53;;;6.90;99.90;;;;;;5073318;28;20284;-61
2021/10/11 06:29:17;;;;;;;22.83;18.93;;;7.00;99.90;;;;;;5073385;28;20463;-61
2021/10/11 06:31:43;;;;;;;19.30;16.00;;;7.10;99.90;;;;;;5073427;28;20205;-61
2021/10/11 06:34:08;;;;;;;20.47;18.37;;;7.10;99.90;;;;;;5073249;28;20213;-62
2021/10/11 06:36:35;;;;;;;21.37;19.20;;;7.20;99.90;;;;;;5092430;28;20193;-61
2021/10/11 06:39:03;;;;;;;24.30;20.80;;;7.20;99.90;;;;;;5093314;28;20637;-62
2021/10/11 06:41:29;;;;;;;21.37;18.40;;;7.30;99.90;;;;;;5092330;28;20488;-60
2021/10/11 06:43:55;;;;;;;22.43;19.10;;;7.30;99.90;;;;;;5093344;28;20900;-62
2021/10/11 06:46:20;;;;;;;20.33;18.00;;;7.30;99.90;;;;;;5093139;28;20496;-63
2021/10/11 06:48:46;;;;;;;21.63;19.33;;;7.30;99.90;;;;;;5093375;28;20208;-61
2021/10/11 06:51:11;;;;;;;25.17;22.07;;;7.30;99.90;;;;;;5093184;28;20185;-62
2021/10/11 06:53:37;;;;;;;25.63;19.03;;;7.30;99.90;;;;;;5093115;28;20172;-62
2021/10/11 06:56:04;;;;;;;24.77;19.33;;;7.40;99.90;;;;;;5092817;28;20188;-62
2021/10/11 06:58:30;;;;;;;23.47;19.20;;;7.40;99.90;;;;;;5093319;28;20165;-62
2021/10/11 07:00:56;;;;;;;19.67;17.57;;;7.50;99.90;;;;;;5093333;28;20408;-62
2021/10/11 07:03:25;;;;;;;20.37;16.30;;;7.50;99.90;;;;;;5093044;28;20543;-62
2021/10/11 07:05:52;;;;;;;21.17;17.90;;;7.60;99.90;;;;;;5092868;28;20205;-62
2021/10/11 07:08:17;;;;;;;18.87;16.97;;;7.70;99.90;;;;;;5093126;28;20407;-61
2021/10/11 07:10:43;;;;;;;20.13;16.83;;;7.80;99.90;;;;;;5092946;28;20407;-61
2021/10/11 07:13:08;;;;;;;21.00;18.63;;;7.90;99.90;;;;;;5093240;28;20200;-62
2021/10/11 07:15:34;;;;;;;23.80;18.03;;;8.00;99.90;;;;;;5093186;28;20199;-57
2021/10/11 07:18:00;;;;;;;25.20;17.80;;;8.10;99.90;;;;;;5092811;28;20169;-61
2021/10/11 07:20:26;;;;;;;21.47;18.60;;;8.20;99.90;;;;;;5092803;28;20485;-61
2021/10/11 07:22:52;;;;;;;20.63;18.43;;;8.40;99.90;;;;;;5092990;28;20893;-62
2021/10/11 07:25:17;;;;;;;20.63;18.53;;;8.50;99.90;;;;;;5093218;28;20357;-62
2021/10/11 07:27:43;;;;;;;22.93;20.53;;;8.70;99.90;;;;;;5092927;28;20187;-61
2021/10/11 07:30:09;;;;;;;22.50;20.13;;;8.80;99.90;;;;;;5092665;28;20200;-61
2021/10/11 07:32:34;;;;;;;23.73;19.50;;;9.00;99.90;;;;;;5092571;28;20636;-62
2021/10/11 07:35:01;;;;;;;22.83;18.77;;;9.20;99.90;;;;;;5092839;28;20408;-62
2021/10/11 07:37:26;;;;;;;20.67;18.27;;;9.30;99.90;;;;;;5092016;28;20202;-63
2021/10/11 07:39:52;;;;;;;24.27;19.10;;;9.50;99.90;;;;;;5093545;28;20763;-62
2021/10/11 07:42:18;;;;;;;21.80;18.70;;;9.60;99.90;;;;;;5093515;28;20637;-62
2021/10/11 07:44:44;;;;;;;21.40;18.90;;;9.70;99.90;;;;;;5093168;28;20417;-62
2021/10/11 07:47:10;;;;;;;20.27;17.97;;;9.80;99.90;;;;;;5092566;28;20954;-62
2021/10/11 07:49:36;;;;;;;18.90;16.90;;;9.90;99.90;;;;;;5093059;28;20200;-62
2021/10/11 07:52:02;;;;;;;23.03;18.77;;;10.10;99.90;;;;;;5092966;28;20184;-62
2021/10/11 07:54:28;;;;;;;20.83;17.77;;;10.20;99.90;;;;;;5092888;28;20406;-63
2021/10/11 07:56:53;;;;;;;21.00;17.73;;;10.30;99.90;;;;;;5092856;28;20426;-62
2021/10/11 07:59:19;;;;;;;19.83;17.73;;;10.50;99.90;;;;;;5092864;28;20954;-63
2021/10/11 08:01:45;;;;;;;20.90;18.00;;;10.50;99.90;;;;;;5092809;28;20694;-62
2021/10/11 08:04:10;;;;;;;22.67;19.00;;;10.60;99.90;;;;;;5092698;28;20169;-62
2021/10/11 08:06:36;;;;;;;21.10;18.73;;;10.70;99.90;;;;;;5093527;28;20211;-61
2021/10/11 08:09:03;;;;;;;20.63;18.67;;;10.60;99.90;;;;;;5096861;28;20553;-61
2021/10/11 08:11:28;;;;;;;22.50;18.33;;;10.60;99.90;;;;;;5096508;28;20498;-61
2021/10/11 08:13:54;;;;;;;21.20;18.07;;;10.70;99.90;;;;;;5096347;28;20829;-62
2021/10/11 08:16:20;;;;;;;21.30;18.90;;;10.80;99.90;;;;;;5096676;28;20189;-62
2021/10/11 08:18:45;;;;;;;21.60;18.57;;;11.00;99.90;;;;;;5082836;28;20260;-62
2021/10/11 08:21:11;;;;;;;21.00;18.73;;;11.20;99.90;;;;;;5076452;28;20164;-62
2021/10/11 08:23:39;;;;;;;18.37;16.43;;;11.20;99.90;;;;;;5076221;28;20178;-60
2021/10/11 08:26:09;;;;;;;20.73;17.83;;;11.10;99.90;;;;;;5076364;28;20282;-62
2021/10/11 08:28:36;;;;;;;20.93;18.00;;;11.20;99.90;;;;;;5075990;28;20449;-60
2021/10/11 08:31:02;;;;;;;22.83;20.47;;;11.30;99.90;;;;;;5076136;28;20803;-62
2021/10/11 08:33:28;;;;;;;19.30;17.30;;;11.30;99.90;;;;;;5084313;28;20414;-62
2021/10/11 08:35:54;;;;;;;29.47;18.87;;;11.20;99.90;;;;;;5095420;28;20441;-62
2021/10/11 08:38:19;;;;;;;22.00;19.63;;;11.30;99.90;;;;;;5095976;28;20238;-62
2021/10/11 08:40:47;;;;;;;21.87;18.30;;;11.20;99.90;;;;;;5096012;28;20172;-60
2021/10/11 08:43:13;;;;;;;19.43;17.33;;;11.30;99.90;;;;;;5095655;28;20202;-61
2021/10/11 08:45:40;;;;;;;21.43;19.23;;;11.40;99.90;;;;;;5095590;28;20890;-61
2021/10/11 08:48:06;;;;;;;19.27;16.73;;;11.50;99.90;;;;;;5107743;22;20273;-64
2021/10/11 08:50:31;;;;;;;18.97;17.00;;;11.80;99.90;;;;;;5095531;28;20521;-63
2021/10/11 08:52:59;;;;;;;19.80;17.70;;;12.00;99.90;;;;;;5095992;28;20253;-63
2021/10/11 08:55:24;;;;;;;20.23;17.77;;;12.20;99.90;;;;;;5095671;28;20259;-63
2021/10/11 08:58:07;;;;;;;17.80;15.90;;;12.10;99.90;;;;;;5095643;28;20448;-62
2021/10/11 09:00:35;;;;;;;19.37;16.60;;;12.20;99.90;;;;;;5095779;28;20160;-62
2021/10/11 09:03:01;;;;;;;20.50;18.50;;;12.30;99.90;;;;;;5095077;28;20407;-61
2021/10/11 09:05:32;;;;;;;21.43;16.73;;;12.60;99.90;;;;;;5095570;28;20415;-62
2021/10/11 09:08:03;;;;;;;21.60;18.13;;;12.80;99.90;;;;;;5095232;28;20449;-61
2021/10/11 09:10:32;;;;;;;19.40;17.40;;;12.60;99.90;;;;;;5095882;28;20930;-63
2021/10/11 09:12:58;;;;;;;18.20;16.20;;;12.70;99.90;;;;;;5095213;28;20405;-62
2021/10/11 09:15:29;;;;;;;18.30;16.37;;;13.10;99.90;;;;;;5095903;28;20406;-61
2021/10/11 09:17:57;;;;;;;19.83;17.63;;;13.30;99.90;;;;;;5094270;28;20850;-62
2021/10/11 09:20:25;;;;;;;18.13;16.33;;;13.20;99.90;;;;;;5095435;28;20422;-63
2021/10/11 09:22:53;;;;;;;22.00;17.60;;;13.20;99.90;;;;;;5094972;28;20495;-62
2021/10/11 09:25:20;;;;;;;22.53;18.33;;;13.20;99.90;;;;;;5095072;28;20432;-62
2021/10/11 09:27:49;;;;;;;19.53;17.43;;;13.40;99.90;;;;;;5077179;28;20435;-63
2021/10/11 09:30:17;;;;;;;20.60;17.53;;;13.40;99.90;;;;;;5095247;28;20498;-63
2021/10/11 09:32:43;;;;;;;18.50;16.63;;;13.40;99.90;;;;;;5094517;28;20427;-63
2021/10/11 09:35:14;;;;;;;19.60;17.50;;;13.40;99.90;;;;;;5094894;28;20414;-60
2021/10/11 09:37:40;;;;;;;18.67;16.80;;;13.30;99.90;;;;;;5094840;28;20182;-63
2021/10/11 09:40:07;;;;;;;19.87;17.80;;;13.40;99.90;;;;;;5094818;28;20416;-62
2021/10/11 09:42:34;;;;;;;19.07;16.97;;;13.30;99.90;;;;;;5094920;28;20481;-62
2021/10/11 09:45:00;;;;;;;20.30;17.00;;;13.40;99.90;;;;;;5094764;28;20904;-63
2021/10/11 09:47:31;;;;;;;20.40;15.93;;;13.50;99.90;;;;;;5094002;28;20452;-62
2021/10/11 09:49:59;;;;;;;17.77;15.97;;;13.70;99.90;;;;;;5094648;28;20436;-63
2021/10/11 09:52:26;;;;;;;18.53;16.70;;;13.80;99.90;;;;;;5094352;28;20404;-63
2021/10/11 09:54:52;;;;;;;18.40;16.40;;;14.00;99.90;;;;;;5094740;28;20405;-63
2021/10/11 09:57:19;;;;;;;19.77;17.57;;;14.10;99.90;;;;;;5094248;28;20477;-63
2021/10/11 09:59:45;;;;;;;20.43;17.40;;;13.90;99.90;;;;;;5094528;28;20423;-62
2021/10/11 10:02:11;;;;;;;21.77;15.87;;;13.90;99.90;;;;;;5094304;28;20411;-63
2021/10/11 10:04:40;;;;;;;18.60;15.77;;;13.80;99.90;;;;;;5094123;28;20408;-62
2021/10/11 10:07:09;;;;;;;19.13;15.73;;;14.10;99.90;;;;;;5069346;28;20295;-62
2021/10/11 10:09:39;;;;;;;22.63;16.73;;;14.10;99.90;;;;;;5070518;28;20441;-62
2021/10/11 10:12:06;;;;;;;20.77;16.83;;;14.00;99.90;;;;;;5073494;28;20397;-63
2021/10/11 10:14:33;;;;;;;18.47;16.53;;;14.10;99.90;;;;;;5073804;28;20490;-63
2021/10/11 10:16:59;;;;;;;17.70;15.83;;;14.20;99.90;;;;;;5073264;28;20451;-62
2021/10/11 10:19:40;;;;;;;18.20;15.47;;;14.30;99.90;;;;;;5073536;28;20774;-62
2021/10/11 10:22:11;;;;;;;17.80;15.90;;;14.20;99.90;;;;;;5073575;28;20195;-63
2021/10/11 10:24:38;;;;;;;15.97;14.30;;;14.30;99.90;;;;;;5051210;28;20748;-63
2021/10/11 10:27:09;;;;;;;17.83;14.80;;;14.70;99.90;;;;;;5053394;28;20431;-63
2021/10/11 10:29:48;;;;;;;19.80;16.30;;;14.80;99.90;;;;;;5053211;28;20436;-62
2021/10/11 10:32:16;;;;;;;19.60;17.50;;;14.90;99.90;;;;;;5053475;28;20401;-63
2021/10/11 10:34:45;;;;;;;24.30;17.33;;;14.80;99.90;;;;;;5053091;28;20402;-62
2021/10/11 10:37:13;;;;;;;22.93;17.60;;;14.70;99.90;;;;;;5053337;28;20469;-63
2021/10/11 10:39:49;;;;;;;19.77;17.77;;;14.80;99.90;;;;;;5053823;28;20487;-62
2021/10/11 10:42:27;;;;;;;20.03;18.07;;;14.70;99.90;;;;;;5053474;28;20393;-63
2021/10/11 10:44:54;;;;;;;19.33;17.33;;;14.60;99.90;;;;;;5053244;28;20418;-63
2021/10/11 10:47:34;;;;;;;19.67;17.67;;;14.80;99.90;;;;;;5066609;28;20965;-63
2021/10/11 10:50:00;;;;;;;23.57;19.50;;;14.90;99.90;;;;;;5093658;28;20524;-63
2021/10/11 10:52:26;;;;;;;20.20;18.20;;;15.20;99.90;;;;;;5093476;28;20403;-63
2021/10/11 10:54:58;;;;;;;20.00;17.77;;;15.40;99.90;;;;;;5093475;28;20397;-63
2021/10/11 10:57:28;;;;;;;22.30;17.73;;;15.60;99.90;;;;;;5093396;28;20215;-63
2021/10/11 11:00:02;;;;;;;19.93;16.73;;;16.20;99.90;;;;;;5093726;28;20969;-63
2021/10/11 11:02:31;;;;;;;19.33;17.33;;;17.10;99.90;;;;;;5093087;28;20453;-63
2021/10/11 11:05:03;;;;;;;19.37;17.37;;;18.20;99.50;;;;;;5093253;28;20427;-63
2021/10/11 11:07:30;;;;;;;19.90;16.67;;;18.00;98.40;;;;;;5093348;28;20476;-63
2021/10/11 11:09:57;;;;;;;22.40;18.60;;;18.50;97.40;;;;;;5093249;28;20443;-61
2021/10/11 11:12:35;;;;;;;19.70;17.60;;;19.10;96.20;;;;;;5093477;28;20395;-63
2021/10/11 11:15:04;;;;;;;19.70;17.43;;;19.90;95.10;;;;;;5090140;28;20399;-63
2021/10/11 11:17:36;;;;;;;18.27;15.93;;;19.70;94.20;;;;;;5068789;28;20432;-63
2021/10/11 11:20:09;;;;;;;18.60;15.97;;;20.10;94.50;;;;;;5073221;28;20404;-63
2021/10/11 11:22:35;;;;;;;18.87;16.37;;;21.20;93.50;;;;;;5082141;28;20468;-61
2021/10/11 11:25:03;;;;;;;19.07;16.90;;;22.10;91.30;;;;;;5093334;28;20399;-63
2021/10/11 11:27:30;;;;;;;20.77;18.60;;;21.60;90.30;;;;;;5093072;28;20188;-63
2021/10/11 11:29:58;;;;;;;19.57;17.60;;;20.30;91.80;;;;;;5092993;28;20532;-62
2021/10/11 11:32:24;;;;;;;21.27;19.07;;;20.30;91.70;;;;;;5093158;28;20486;-63
2021/10/11 11:34:50;;;;;;;20.03;17.90;;;20.20;91.50;;;;;;5093142;28;20403;-61
2021/10/11 11:37:16;;;;;;;19.07;17.10;;;20.60;91.40;;;;;;5092605;28;20430;-63
2021/10/11 11:39:41;;;;;;;17.60;15.83;;;21.20;91.00;;;;;;5093053;28;20657;-63
2021/10/11 11:42:07;;;;;;;18.33;16.43;;;21.50;89.20;;;;;;5097005;28;20403;-63
2021/10/11 11:44:33;;;;;;;18.27;14.57;;;22.30;88.40;;;;;;5096989;28;20161;-63
2021/10/11 11:47:00;;;;;;;17.03;15.33;;;21.80;88.20;;;;;;5096851;28;20550;-62
2021/10/11 11:49:25;;;;;;;16.17;14.57;;;21.40;88.20;;;;;;5096705;28;20216;-61
2021/10/11 11:52:02;;;;;;;19.60;15.77;;;21.40;87.10;;;;;;5096845;28;20822;-63
2021/10/11 11:54:27;;;;;;;15.40;13.87;;;21.80;86.80;;;;;;5097126;28;20149;-63
2021/10/11 11:56:56;;;;;;;15.97;14.37;;;22.60;86.90;;;;;;5096553;28;20427;-63
2021/10/11 11:59:22;;;;;;;14.60;13.20;;;21.90;84.70;;;;;;5096912;28;20562;-63
2021/10/11 12:01:47;;;;;;;21.03;15.80;;;21.80;86.20;;;;;;5096665;28;20398;-63
2021/10/11 12:04:13;;;;;;;17.53;14.80;;;21.40;86.10;;;;;;5096313;28;20634;-63
2021/10/11 12:06:40;;;;;;;16.97;15.30;;;21.80;85.10;;;;;;5096408;28;20268;-63
2021/10/11 12:09:06;;;;;;;18.13;16.07;;;21.90;84.40;;;;;;5096306;28;20182;-63
2021/10/11 12:11:32;;;;;;;16.47;14.77;;;22.70;83.80;;;;;;5096501;28;20392;-63
2021/10/11 12:14:01;;;;;;;16.70;15.10;;;22.30;84.10;;;;;;5096507;28;20395;-63
2021/10/11 12:16:28;;;;;;;20.70;14.90;;;22.80;82.70;;;;;;5096362;28;20174;-63
2021/10/11 12:18:56;;;;;;;16.93;15.23;;;23.40;81.40;;;;;;5072552;28;20407;-63
2021/10/11 12:21:24;;;;;;;17.17;15.47;;;23.90;79.40;;;;;;5075946;28;20931;-63
2021/10/11 12:23:51;;;;;;;16.70;14.23;;;23.20;80.20;;;;;;5055933;28;20435;-63
2021/10/11 12:26:19;;;;;;;16.00;14.40;;;22.70;81.20;;;;;;5055998;28;20500;-63
2021/10/11 12:29:07;;;;;;;16.60;15.00;;;22.50;82.60;;;;;;5055712;28;20523;-64
2021/10/11 12:31:35;;;;;;;16.13;14.53;;;23.50;81.60;;;;;;5056084;28;20398;-62